Portada
METAR-TAF:

METAR-TAF

Aeroports :

Takamatsu, Japó

latitud: 34-13N, longitud: 134-01E, altitud: 185 m

Observació

L'informe es va fer fa 12 minuts, a les 10:00 UTC
Vent 3 kt del Est/Sud-Est, variant entre Est/Nord-Est i Sud/Sud-Est
Temperatura 5°C
Humitat 65%
Pressió 1029 hPa
Visibilitat 10 km o més
sense núvols per sota de 1500 mi sense presència de cumulonimbus.

METAR: RJOT 271000Z 12003KT 070V160 CAVOK 05/M01 Q1029

Hora: 19:12 (10:12 UTC)

Pronòstic

L'informe es va fer fa 5 hores i 2 minuts, a les 05:10 UTC
Pronòstic vàlid del 27 a les 06 UTC al 28 a les 12 UTC
Vent 6 kt del Est
Visibilitat 10 km o més
Escasses núvols a una alçada de 3000 ft

TAF: RJOT 270510Z 2706/2812 10006KT 9999 FEW030

Observacions i pronòstics meteorològics de més de 4000 aeroports (METAR i TAF).

Les estacions disponibles són els punts grocs i vermells al mapa.

Posi el ratolí al punt desitjat per veure el nom de l'estació.

Feu clic per veure les observacions i els pronòstics meteorològics.

Per canviar el mapa: feu clic els botons verds amb una creu de color negre per apropar; al botó verd amb un guió per allunyar la imatge; o en les fletxes verdes per a mapes adjacents.


METAR-TAF: